createdAt,value
2022-08-24T00:00:35.344Z,14.50
2022-08-24T00:03:02.699Z,14.30
2022-08-24T00:05:29.873Z,14.20
2022-08-24T00:07:56.911Z,14.20
2022-08-24T00:10:24.308Z,14.30
2022-08-24T00:12:51.147Z,14.30
2022-08-24T00:15:18.603Z,14.30
2022-08-24T00:17:45.489Z,14.40
2022-08-24T00:20:13.055Z,14.50
2022-08-24T00:22:41.085Z,14.40
2022-08-24T00:25:10.861Z,14.40
2022-08-24T00:27:39.219Z,14.40
2022-08-24T00:30:08.728Z,14.20
2022-08-24T00:32:37.698Z,14.00
2022-08-24T00:35:06.797Z,14.00
2022-08-24T00:37:34.289Z,14.10
2022-08-24T00:40:01.747Z,14.10
2022-08-24T00:42:28.900Z,14.10
2022-08-24T00:44:55.821Z,14.10
2022-08-24T00:47:31.670Z,14.20
2022-08-24T00:50:06.964Z,14.20
2022-08-24T00:52:48.202Z,14.10
2022-08-24T00:55:23.539Z,14.10
2022-08-24T00:57:55.555Z,14.10
2022-08-24T01:00:30.335Z,13.90
2022-08-24T01:03:01.558Z,13.90
2022-08-24T01:05:28.492Z,13.80
2022-08-24T01:07:55.286Z,13.80
2022-08-24T01:10:25.286Z,13.80
2022-08-24T01:12:59.648Z,13.80
2022-08-24T01:15:29.454Z,13.80
2022-08-24T01:18:15.880Z,13.90
2022-08-24T01:20:47.540Z,13.80
2022-08-24T01:23:42.775Z,13.70
2022-08-24T01:26:18.219Z,13.80
2022-08-24T01:28:49.392Z,13.80
2022-08-24T01:31:24.404Z,13.80
2022-08-24T01:33:52.769Z,13.80
2022-08-24T01:36:50.662Z,13.70
2022-08-24T01:39:22.080Z,13.60
2022-08-24T01:41:49.403Z,13.60
2022-08-24T01:44:16.292Z,13.50
2022-08-24T01:46:48.753Z,13.40
2022-08-24T01:49:17.070Z,13.30
2022-08-24T01:51:46.250Z,13.20
2022-08-24T01:54:14.690Z,13.20
2022-08-24T01:56:41.766Z,13.30
2022-08-24T01:59:09.180Z,13.40
2022-08-24T02:01:44.371Z,13.50
2022-08-24T02:04:11.406Z,13.50
2022-08-24T02:06:48.344Z,13.50
2022-08-24T02:09:15.495Z,13.50
2022-08-24T02:11:42.690Z,13.50
2022-08-24T02:14:09.506Z,13.50
2022-08-24T02:16:36.867Z,13.40
2022-08-24T02:19:03.686Z,13.40
2022-08-24T02:21:31.159Z,13.50
2022-08-24T02:23:57.963Z,13.50
2022-08-24T02:26:28.393Z,13.50
2022-08-24T02:28:59.294Z,13.50
2022-08-24T02:31:32.616Z,13.40
2022-08-24T02:33:59.775Z,13.40
2022-08-24T02:36:26.800Z,13.40
2022-08-24T02:38:55.683Z,13.40
2022-08-24T02:41:25.557Z,13.40
2022-08-24T02:43:53.627Z,13.30
2022-08-24T02:46:23.161Z,13.30
2022-08-24T02:48:54.940Z,13.40
2022-08-24T02:51:43.869Z,13.40
2022-08-24T02:54:12.841Z,13.40
2022-08-24T02:56:39.748Z,13.30
2022-08-24T02:59:07.300Z,13.10
2022-08-24T03:01:34.118Z,12.90
2022-08-24T03:04:01.022Z,12.80
2022-08-24T03:06:27.823Z,12.80
2022-08-24T03:08:56.547Z,12.80
2022-08-24T03:11:27.967Z,12.80
2022-08-24T03:13:57.486Z,12.90
2022-08-24T03:16:24.743Z,13.00
2022-08-24T03:18:51.524Z,13.00
2022-08-24T03:21:18.491Z,13.10
2022-08-24T03:23:45.251Z,13.10
2022-08-24T03:26:12.587Z,13.20
2022-08-24T03:28:39.702Z,13.20
2022-08-24T03:31:07.440Z,13.10
2022-08-24T03:33:34.504Z,13.20
2022-08-24T03:36:01.293Z,13.10
2022-08-24T03:38:28.379Z,13.10
2022-08-24T03:40:55.645Z,13.10
2022-08-24T03:43:40.995Z,13.10
2022-08-24T03:46:08.901Z,12.90
2022-08-24T03:48:36.254Z,12.90
2022-08-24T03:51:03.642Z,12.90
2022-08-24T03:53:30.614Z,12.90
2022-08-24T03:55:57.362Z,13.00
2022-08-24T03:58:24.291Z,12.90
2022-08-24T04:00:51.195Z,12.80
2022-08-24T04:03:17.987Z,12.80
2022-08-24T04:05:44.864Z,12.90
2022-08-24T04:08:11.820Z,12.90
2022-08-24T04:10:45.209Z,13.00
2022-08-24T04:13:12.175Z,13.00
2022-08-24T04:15:41.448Z,13.00
2022-08-24T04:18:08.957Z,12.90
2022-08-24T04:20:43.009Z,12.90
2022-08-24T04:23:13.020Z,13.00
2022-08-24T04:25:45.042Z,13.10
2022-08-24T04:28:13.810Z,13.10
2022-08-24T04:30:42.472Z,13.10
2022-08-24T04:33:11.890Z,13.20
2022-08-24T04:35:40.592Z,13.10
2022-08-24T04:38:08.882Z,13.10
2022-08-24T04:40:39.713Z,13.00
2022-08-24T04:43:07.026Z,12.80
2022-08-24T04:45:34.525Z,12.80
2022-08-24T04:48:01.475Z,12.80
2022-08-24T04:50:28.218Z,12.70
2022-08-24T04:52:54.969Z,12.70
2022-08-24T04:55:21.762Z,12.70
2022-08-24T04:57:48.567Z,12.80
2022-08-24T05:00:15.754Z,12.90
2022-08-24T05:02:45.073Z,13.00
2022-08-24T05:05:13.650Z,13.10
2022-08-24T05:07:40.547Z,13.10
2022-08-24T05:10:10.876Z,13.10
2022-08-24T05:12:38.818Z,13.10
2022-08-24T05:15:06.201Z,13.10
2022-08-24T05:17:32.966Z,13.20
2022-08-24T05:19:59.892Z,13.40
2022-08-24T05:22:27.308Z,13.40
2022-08-24T05:24:54.302Z,13.40
2022-08-24T05:27:21.369Z,13.50
2022-08-24T05:29:55.315Z,13.60
2022-08-24T05:32:22.284Z,13.60
2022-08-24T05:34:49.118Z,13.60
2022-08-24T05:37:15.882Z,13.70
2022-08-24T05:39:42.741Z,13.70
2022-08-24T05:42:09.880Z,13.70
2022-08-24T05:44:37.583Z,13.80
2022-08-24T05:47:04.560Z,13.80
2022-08-24T05:49:31.832Z,13.90
2022-08-24T05:51:58.890Z,14.00
2022-08-24T05:54:27.017Z,14.10
2022-08-24T05:56:54.956Z,14.20
2022-08-24T05:59:22.614Z,14.30
2022-08-24T06:01:49.765Z,14.40
2022-08-24T06:04:16.651Z,14.50
2022-08-24T06:06:43.560Z,14.60
2022-08-24T06:09:16.029Z,14.80
2022-08-24T06:11:43.074Z,14.80
2022-08-24T06:14:13.347Z,14.90
2022-08-24T06:16:43.766Z,14.90
2022-08-24T06:19:13.634Z,15.00
2022-08-24T06:21:41.751Z,15.10
2022-08-24T06:24:08.775Z,15.20
2022-08-24T06:26:54.505Z,15.30
2022-08-24T06:29:21.978Z,15.40
2022-08-24T06:31:54.325Z,15.50
2022-08-24T06:34:22.842Z,15.70
2022-08-24T06:36:49.866Z,15.80
2022-08-24T06:39:16.981Z,15.80
2022-08-24T06:41:43.951Z,15.90
2022-08-24T06:44:11.103Z,16.00
2022-08-24T06:46:39.948Z,16.10
2022-08-24T06:49:06.732Z,16.30
2022-08-24T06:51:33.676Z,16.30
2022-08-24T06:54:00.654Z,16.50
2022-08-24T06:56:27.467Z,16.60
2022-08-24T06:58:54.237Z,16.70
2022-08-24T07:01:26.823Z,16.80
2022-08-24T07:03:53.908Z,17.00
2022-08-24T07:06:21.340Z,17.20
2022-08-24T07:08:48.269Z,17.30
2022-08-24T07:11:17.950Z,17.50
2022-08-24T07:13:47.422Z,17.50
2022-08-24T07:16:34.968Z,17.60
2022-08-24T07:19:04.101Z,17.70
2022-08-24T07:21:32.331Z,17.80
2022-08-24T07:24:01.205Z,17.90
2022-08-24T07:26:31.447Z,17.90
2022-08-24T07:29:07.060Z,17.90
2022-08-24T07:31:36.642Z,18.10
2022-08-24T07:34:05.620Z,18.30
2022-08-24T07:36:33.474Z,18.40
2022-08-24T07:39:01.177Z,18.70
2022-08-24T07:42:02.502Z,18.70
2022-08-24T07:44:15.714Z,18.70
2022-08-24T07:46:43.092Z,18.70
2022-08-24T07:49:29.458Z,18.80
2022-08-24T07:51:58.161Z,18.80
2022-08-24T07:54:25.073Z,18.80
2022-08-24T07:56:52.559Z,19.10
2022-08-24T07:59:19.438Z,19.20
2022-08-24T08:01:46.821Z,19.30
2022-08-24T08:04:15.327Z,19.50
2022-08-24T08:06:43.177Z,19.80
2022-08-24T08:09:10.122Z,19.90
2022-08-24T08:11:36.986Z,20.10
2022-08-24T08:14:03.799Z,20.20
2022-08-24T08:16:30.944Z,20.40
2022-08-24T08:19:12.993Z,20.50
2022-08-24T08:22:04.001Z,20.50
2022-08-24T08:24:30.909Z,20.70
2022-08-24T08:26:57.959Z,20.90
2022-08-24T08:29:25.616Z,21.20
2022-08-24T08:31:53.063Z,21.50
2022-08-24T08:34:20.174Z,21.70
2022-08-24T08:36:47.903Z,21.70
2022-08-24T08:39:17.316Z,21.70
2022-08-24T08:42:18.039Z,21.60
2022-08-24T08:44:50.519Z,21.60
2022-08-24T08:47:43.763Z,21.70
2022-08-24T08:50:21.821Z,21.70
2022-08-24T08:53:13.798Z,21.80
2022-08-24T08:55:45.350Z,21.90
2022-08-24T08:58:33.766Z,21.90
2022-08-24T09:01:15.798Z,21.90
2022-08-24T09:04:04.545Z,22.00
2022-08-24T09:06:44.694Z,22.20
2022-08-24T09:09:30.776Z,22.40
2022-08-24T09:12:32.783Z,22.40
2022-08-24T09:15:24.030Z,22.60
2022-08-24T09:18:12.210Z,22.60
2022-08-24T09:20:56.956Z,22.70
2022-08-24T09:23:50.122Z,22.80
2022-08-24T09:26:33.007Z,22.80
2022-08-24T09:29:23.260Z,22.80
2022-08-24T09:32:28.622Z,22.90
2022-08-24T09:35:05.442Z,23.20
2022-08-24T09:37:50.364Z,23.30
2022-08-24T09:40:43.535Z,23.40
2022-08-24T09:43:35.059Z,23.50
2022-08-24T09:46:09.985Z,23.50
2022-08-24T09:49:08.381Z,23.70
2022-08-24T09:51:49.964Z,23.80
2022-08-24T09:55:00.690Z,23.90
2022-08-24T09:58:01.916Z,23.70
2022-08-24T10:00:44.714Z,23.60
2022-08-24T10:03:33.903Z,23.60
2022-08-24T10:06:10.984Z,23.70
2022-08-24T10:08:43.230Z,23.70
2022-08-24T10:11:23.094Z,23.50
2022-08-24T10:14:00.925Z,23.50
2022-08-24T10:16:52.515Z,23.40
2022-08-24T10:19:44.734Z,23.40
2022-08-24T10:22:41.768Z,23.40
2022-08-24T10:25:11.532Z,23.60
2022-08-24T10:28:01.480Z,23.90
2022-08-24T10:30:52.620Z,24.20
2022-08-24T10:33:26.476Z,24.40
2022-08-24T10:36:05.310Z,24.60
2022-08-24T10:39:07.318Z,24.80
2022-08-24T10:41:58.181Z,24.80
2022-08-24T10:44:47.831Z,25.10
2022-08-24T10:47:30.922Z,25.60
2022-08-24T10:50:30.982Z,25.80
2022-08-24T10:53:05.447Z,25.70
2022-08-24T10:55:34.602Z,25.50
2022-08-24T10:58:28.704Z,25.20
2022-08-24T11:00:56.098Z,24.90
2022-08-24T11:03:28.001Z,24.80
2022-08-24T11:05:56.749Z,24.50
2022-08-24T11:08:28.081Z,24.30
2022-08-24T11:11:08.783Z,24.30
2022-08-24T11:13:38.346Z,24.10
2022-08-24T11:16:06.555Z,23.90
2022-08-24T11:18:52.366Z,23.80
2022-08-24T11:21:55.459Z,23.80
2022-08-24T11:24:37.681Z,23.80
2022-08-24T11:27:32.553Z,23.90
2022-08-24T11:30:03.960Z,24.30
2022-08-24T11:32:44.677Z,24.70
2022-08-24T11:35:33.305Z,25.00
2022-08-24T11:38:07.498Z,25.30
2022-08-24T11:40:41.738Z,25.60
2022-08-24T11:43:15.880Z,25.80
2022-08-24T11:45:52.175Z,25.80
2022-08-24T11:48:31.054Z,26.10
2022-08-24T11:51:14.683Z,26.30
2022-08-24T12:06:31.477Z,27.30
2022-08-24T12:09:09.360Z,27.50
2022-08-24T12:11:44.857Z,27.40
2022-08-24T12:14:44.887Z,27.20
2022-08-24T12:17:35.664Z,27.30
2022-08-24T12:20:09.790Z,27.20
2022-08-24T12:22:39.721Z,26.90
2022-08-24T12:25:28.287Z,26.80
2022-08-24T12:27:55.592Z,26.90
2022-08-24T12:30:23.178Z,27.10
2022-08-24T12:33:00.611Z,27.20
2022-08-24T12:35:36.783Z,27.20
2022-08-24T12:38:28.613Z,26.90
2022-08-24T12:41:14.619Z,26.80
2022-08-24T12:44:09.032Z,26.70
2022-08-24T12:46:37.221Z,26.80
2022-08-24T12:49:19.647Z,26.70
2022-08-24T12:52:21.074Z,26.70
2022-08-24T12:55:17.011Z,26.80
2022-08-24T12:58:30.398Z,26.60
2022-08-24T13:00:51.975Z,26.80
2022-08-24T13:03:50.952Z,27.10
2022-08-24T13:06:28.771Z,27.40
2022-08-24T13:09:08.358Z,28.30
2022-08-24T13:11:37.896Z,27.80
2022-08-24T13:14:21.125Z,27.30
2022-08-24T13:16:55.909Z,26.90
2022-08-24T13:19:39.986Z,26.80
2022-08-24T13:22:09.731Z,26.40
2022-08-24T13:24:37.567Z,26.50
2022-08-24T13:27:27.368Z,26.80
2022-08-24T13:30:18.251Z,27.80
2022-08-24T13:32:55.424Z,27.60
2022-08-24T13:35:57.535Z,27.30
2022-08-24T13:38:24.256Z,27.30
2022-08-24T13:40:58.643Z,27.30
2022-08-24T13:43:47.975Z,27.30
2022-08-24T13:46:19.860Z,26.90
2022-08-24T13:48:58.614Z,26.80
2022-08-24T13:51:34.186Z,26.60
2022-08-24T13:54:32.019Z,26.30
2022-08-24T13:57:18.549Z,26.10
2022-08-24T14:00:05.599Z,26.00
2022-08-24T14:02:50.512Z,26.20
2022-08-24T14:05:54.246Z,26.10
2022-08-24T14:08:49.949Z,26.20
2022-08-24T14:11:25.935Z,26.10
2022-08-24T14:14:40.534Z,26.20
2022-08-24T14:17:35.710Z,26.30
2022-08-24T14:20:24.512Z,26.40
2022-08-24T14:23:16.452Z,26.50
2022-08-24T14:25:49.149Z,26.50
2022-08-24T14:28:39.388Z,26.60
2022-08-24T14:31:28.103Z,26.70
2022-08-24T14:34:16.003Z,26.70
2022-08-24T14:36:46.688Z,26.80
2022-08-24T14:39:35.971Z,26.80
2022-08-24T14:42:17.644Z,27.00
2022-08-24T14:45:03.102Z,27.10
2022-08-24T14:48:01.761Z,27.20
2022-08-24T14:50:54.836Z,27.50
2022-08-24T14:54:15.610Z,27.80
2022-08-24T14:57:03.598Z,28.10
2022-08-24T14:59:53.111Z,28.50
2022-08-24T15:02:45.158Z,29.40
2022-08-24T15:05:38.738Z,30.20
2022-08-24T15:08:15.937Z,29.90
2022-08-24T15:11:09.501Z,28.80
2022-08-24T15:14:08.539Z,28.40
2022-08-24T15:16:50.717Z,27.90
2022-08-24T15:19:23.083Z,27.80
2022-08-24T15:22:02.157Z,27.90
2022-08-24T15:24:44.923Z,27.80
2022-08-24T15:27:47.791Z,27.40
2022-08-24T15:30:27.359Z,27.30
2022-08-24T15:33:01.223Z,27.30
2022-08-24T15:35:32.147Z,27.40
2022-08-24T15:38:16.574Z,27.60
2022-08-24T15:40:46.051Z,27.60
2022-08-24T15:43:13.598Z,27.70
2022-08-24T15:45:51.222Z,27.70
2022-08-24T15:48:24.501Z,27.60
2022-08-24T15:50:52.901Z,27.50
2022-08-24T15:53:29.458Z,27.50
2022-08-24T15:55:56.852Z,27.60
2022-08-24T15:58:37.158Z,27.90
2022-08-24T16:01:28.224Z,28.10
2022-08-24T16:03:56.711Z,27.80
2022-08-24T16:06:35.523Z,28.00
2022-08-24T16:09:32.678Z,27.90
2022-08-24T16:12:12.701Z,28.00
2022-08-24T16:14:52.504Z,28.30
2022-08-24T16:17:34.663Z,28.10
2022-08-24T16:20:24.129Z,27.50
2022-08-24T16:22:58.454Z,27.30
2022-08-24T16:25:27.379Z,27.30
2022-08-24T16:28:00.489Z,27.90
2022-08-24T16:30:43.503Z,28.60
2022-08-24T16:33:11.571Z,29.00
2022-08-24T16:35:38.795Z,28.60
2022-08-24T16:38:05.856Z,28.30
2022-08-24T16:40:34.411Z,28.30
2022-08-24T16:43:01.323Z,27.90
2022-08-24T16:45:28.879Z,27.40
2022-08-24T16:47:57.731Z,27.10
2022-08-24T16:50:27.164Z,26.50
2022-08-24T16:52:54.566Z,25.80
2022-08-24T16:55:21.963Z,25.40
2022-08-24T16:57:49.823Z,25.10
2022-08-24T17:00:19.189Z,24.90
2022-08-24T17:02:48.058Z,24.70
2022-08-24T17:05:17.825Z,24.60
2022-08-24T17:07:45.103Z,24.50
2022-08-24T17:10:15.434Z,24.40
2022-08-24T17:12:42.734Z,24.40
2022-08-24T17:15:11.855Z,24.30
2022-08-24T17:17:40.435Z,24.30
2022-08-24T17:20:11.829Z,24.30
2022-08-24T17:22:38.863Z,24.30
2022-08-24T17:25:05.778Z,24.20
2022-08-24T17:27:34.020Z,24.10
2022-08-24T17:30:02.705Z,24.10
2022-08-24T17:32:29.641Z,24.10
2022-08-24T17:34:57.016Z,24.10
2022-08-24T17:37:24.581Z,24.10
2022-08-24T17:39:57.632Z,24.00
2022-08-24T17:45:12.976Z,23.90
2022-08-24T17:47:41.355Z,23.80
2022-08-24T17:50:12.768Z,23.70
2022-08-24T17:52:40.462Z,23.80
2022-08-24T17:55:09.506Z,23.70
2022-08-24T17:57:37.356Z,23.50
2022-08-24T18:00:06.593Z,23.40
2022-08-24T18:02:34.895Z,23.30
2022-08-24T18:05:02.603Z,23.10
2022-08-24T18:07:49.433Z,22.90
2022-08-24T18:10:21.079Z,22.80
2022-08-24T18:12:48.128Z,22.70
2022-08-24T18:15:14.973Z,22.60
2022-08-24T18:17:47.604Z,22.40
2022-08-24T18:20:16.591Z,22.30
2022-08-24T18:22:47.550Z,22.30
2022-08-24T18:25:22.869Z,22.10
2022-08-24T18:27:52.423Z,21.90
2022-08-24T18:30:30.618Z,21.80
2022-08-24T18:33:01.643Z,21.60
2022-08-24T18:35:30.658Z,21.50
2022-08-24T18:37:57.476Z,21.40
2022-08-24T18:40:26.765Z,21.30
2022-08-24T18:43:01.683Z,21.10
2022-08-24T18:45:31.452Z,21.10
2022-08-24T18:47:58.815Z,20.90
2022-08-24T18:50:28.831Z,20.90
2022-08-24T18:52:57.478Z,20.80
2022-08-24T18:55:25.426Z,20.70
2022-08-24T18:57:52.370Z,20.50
2022-08-24T19:00:19.538Z,20.40
2022-08-24T19:02:47.340Z,20.40
2022-08-24T19:05:21.271Z,20.30
2022-08-24T19:07:51.275Z,20.10
2022-08-24T19:10:24.158Z,20.00
2022-08-24T19:13:00.052Z,19.80
2022-08-24T19:15:34.664Z,19.70
2022-08-24T19:18:09.620Z,19.60
2022-08-24T19:20:39.088Z,19.60
2022-08-24T19:23:13.021Z,19.50
2022-08-24T19:25:44.365Z,19.50
2022-08-24T19:28:12.057Z,19.30
2022-08-24T19:30:39.470Z,19.30
2022-08-24T19:33:10.486Z,19.30
2022-08-24T19:35:41.085Z,19.30
2022-08-24T19:38:08.051Z,19.20
2022-08-24T19:40:34.930Z,19.10
2022-08-24T19:43:02.961Z,19.10
2022-08-24T19:45:49.436Z,19.20
2022-08-24T19:48:17.067Z,18.90
2022-08-24T19:50:44.157Z,18.90
2022-08-24T19:53:10.975Z,18.80
2022-08-24T19:55:38.267Z,18.80
2022-08-24T19:58:30.125Z,18.70
2022-08-24T20:01:02.684Z,18.80
2022-08-24T20:03:29.665Z,18.60
2022-08-24T20:05:57.148Z,18.50
2022-08-24T20:08:23.909Z,18.40
2022-08-24T20:10:52.936Z,18.40
2022-08-24T20:13:19.894Z,18.30
2022-08-24T20:15:46.976Z,18.30
2022-08-24T20:18:14.504Z,18.30
2022-08-24T20:20:41.283Z,18.40
2022-08-24T20:23:08.674Z,18.40
2022-08-24T20:25:37.194Z,18.30
2022-08-24T20:28:28.270Z,18.20
2022-08-24T20:30:53.208Z,18.10
2022-08-24T20:33:27.672Z,18.10
2022-08-24T20:35:56.298Z,18.00
2022-08-24T20:38:23.880Z,18.00
2022-08-24T20:40:52.023Z,18.00
2022-08-24T20:43:19.672Z,17.90
2022-08-24T20:45:49.082Z,17.80
2022-08-24T20:48:17.375Z,17.80
2022-08-24T20:50:44.211Z,17.70
2022-08-24T20:53:11.928Z,17.60
2022-08-24T20:55:40.493Z,17.50
2022-08-24T20:58:07.959Z,17.40
2022-08-24T21:00:34.943Z,17.40
2022-08-24T21:03:01.800Z,17.50
2022-08-24T21:05:28.770Z,17.50
2022-08-24T21:07:57.780Z,17.40
2022-08-24T21:10:26.828Z,17.50
2022-08-24T21:12:54.222Z,17.50
2022-08-24T21:15:22.418Z,17.50
2022-08-24T21:17:50.273Z,17.50
2022-08-24T21:20:20.157Z,17.50
2022-08-24T21:22:47.055Z,17.50
2022-08-24T21:25:14.674Z,17.40
2022-08-24T21:27:44.217Z,17.40
2022-08-24T21:30:14.208Z,17.40
2022-08-24T21:33:00.275Z,17.30
2022-08-24T21:35:27.195Z,17.10
2022-08-24T21:37:54.335Z,16.90
2022-08-24T21:40:21.947Z,16.80
2022-08-24T21:42:49.354Z,16.70
2022-08-24T21:45:17.135Z,16.60
2022-08-24T21:47:44.715Z,16.70
2022-08-24T21:50:12.116Z,16.80
2022-08-24T21:52:38.943Z,16.80
2022-08-24T21:55:09.635Z,16.80
2022-08-24T21:57:40.344Z,16.80
2022-08-24T22:00:13.519Z,16.80
2022-08-24T22:02:40.863Z,16.60
2022-08-24T22:05:09.354Z,16.50
2022-08-24T22:07:36.657Z,16.50
2022-08-24T22:10:05.096Z,16.40
2022-08-24T22:12:32.237Z,16.20
2022-08-24T22:14:59.111Z,16.00
2022-08-24T22:17:26.277Z,15.90
2022-08-24T22:19:53.476Z,16.00
2022-08-24T22:22:20.699Z,16.00
2022-08-24T22:24:47.804Z,16.10
2022-08-24T22:27:15.406Z,16.10
2022-08-24T22:29:42.260Z,16.00
2022-08-24T22:32:09.055Z,16.00
2022-08-24T22:34:39.043Z,15.90
2022-08-24T22:37:06.201Z,15.90
2022-08-24T22:39:33.337Z,16.00
2022-08-24T22:42:00.120Z,16.00
2022-08-24T22:44:27.735Z,16.00
2022-08-24T22:47:00.391Z,16.00
2022-08-24T22:49:30.243Z,16.10
2022-08-24T22:51:57.626Z,16.10
2022-08-24T22:54:25.500Z,16.10
2022-08-24T22:56:54.098Z,16.10
2022-08-24T22:59:22.350Z,15.90
2022-08-24T23:01:51.616Z,15.90
2022-08-24T23:04:23.352Z,15.80
2022-08-24T23:06:50.940Z,15.70
2022-08-24T23:09:18.779Z,15.60
2022-08-24T23:11:46.301Z,15.60
2022-08-24T23:14:14.333Z,15.70
2022-08-24T23:16:47.860Z,15.80
2022-08-24T23:19:39.451Z,15.80
2022-08-24T23:22:08.571Z,15.70
2022-08-24T23:24:35.907Z,15.60
2022-08-24T23:27:04.031Z,15.50
2022-08-24T23:29:31.088Z,15.30
2022-08-24T23:31:58.073Z,15.30
2022-08-24T23:34:24.850Z,15.20
2022-08-24T23:36:51.861Z,15.30
2022-08-24T23:39:21.068Z,15.30
2022-08-24T23:41:49.172Z,15.30
2022-08-24T23:44:20.523Z,15.40
2022-08-24T23:46:47.754Z,15.40
2022-08-24T23:49:17.183Z,15.30
2022-08-24T23:51:44.016Z,15.20
2022-08-24T23:54:10.978Z,15.10
2022-08-24T23:56:42.050Z,15.00
2022-08-24T23:59:15.318Z,14.90
